sensor_id;sensor_type;location;lat;lon;timestamp;P1;durP1;ratioP1;P2;durP2;ratioP2
6053;SDS011;3055;50.886;14.814;2024-02-15T00:00:51;8.50;;;6.97;;
6053;SDS011;3055;50.886;14.814;2024-02-15T00:03:18;10.77;;;6.93;;
6053;SDS011;3055;50.886;14.814;2024-02-15T00:05:46;8.23;;;7.43;;
6053;SDS011;3055;50.886;14.814;2024-02-15T00:08:13;10.20;;;7.33;;
6053;SDS011;3055;50.886;14.814;2024-02-15T00:10:42;8.60;;;7.47;;
6053;SDS011;3055;50.886;14.814;2024-02-15T00:13:11;10.27;;;7.63;;
6053;SDS011;3055;50.886;14.814;2024-02-15T00:15:38;8.20;;;7.40;;
6053;SDS011;3055;50.886;14.814;2024-02-15T00:18:05;8.67;;;7.37;;
6053;SDS011;3055;50.886;14.814;2024-02-15T00:20:33;7.93;;;6.80;;
6053;SDS011;3055;50.886;14.814;2024-02-15T00:23:00;9.57;;;7.20;;
6053;SDS011;3055;50.886;14.814;2024-02-15T00:25:27;12.37;;;6.80;;
6053;SDS011;3055;50.886;14.814;2024-02-15T00:27:57;8.37;;;7.20;;
6053;SDS011;3055;50.886;14.814;2024-02-15T00:30:25;10.50;;;7.83;;
6053;SDS011;3055;50.886;14.814;2024-02-15T00:32:53;11.23;;;7.60;;
6053;SDS011;3055;50.886;14.814;2024-02-15T00:35:20;8.80;;;7.90;;
6053;SDS011;3055;50.886;14.814;2024-02-15T00:37:47;10.93;;;8.07;;
6053;SDS011;3055;50.886;14.814;2024-02-15T00:40:15;9.27;;;7.60;;
6053;SDS011;3055;50.886;14.814;2024-02-15T00:42:42;9.90;;;7.73;;
6053;SDS011;3055;50.886;14.814;2024-02-15T00:45:11;9.20;;;8.20;;
6053;SDS011;3055;50.886;14.814;2024-02-15T00:47:38;10.17;;;8.23;;
6053;SDS011;3055;50.886;14.814;2024-02-15T00:50:07;8.97;;;7.90;;
6053;SDS011;3055;50.886;14.814;2024-02-15T00:52:35;9.00;;;7.73;;
6053;SDS011;3055;50.886;14.814;2024-02-15T00:55:02;9.63;;;8.13;;
6053;SDS011;3055;50.886;14.814;2024-02-15T00:57:29;9.83;;;8.20;;
6053;SDS011;3055;50.886;14.814;2024-02-15T00:59:57;9.73;;;8.13;;
6053;SDS011;3055;50.886;14.814;2024-02-15T01:02:25;10.83;;;8.60;;
6053;SDS011;3055;50.886;14.814;2024-02-15T01:04:54;9.07;;;8.17;;
6053;SDS011;3055;50.886;14.814;2024-02-15T01:07:24;11.20;;;8.90;;
6053;SDS011;3055;50.886;14.814;2024-02-15T01:09:53;10.40;;;8.50;;
6053;SDS011;3055;50.886;14.814;2024-02-15T01:12:20;8.83;;;7.93;;
6053;SDS011;3055;50.886;14.814;2024-02-15T01:14:47;8.33;;;7.53;;
6053;SDS011;3055;50.886;14.814;2024-02-15T01:17:14;9.13;;;8.17;;
6053;SDS011;3055;50.886;14.814;2024-02-15T01:19:43;9.20;;;8.10;;
6053;SDS011;3055;50.886;14.814;2024-02-15T01:22:11;9.57;;;8.23;;
6053;SDS011;3055;50.886;14.814;2024-02-15T01:24:38;10.60;;;8.70;;
6053;SDS011;3055;50.886;14.814;2024-02-15T01:27:05;10.33;;;8.20;;
6053;SDS011;3055;50.886;14.814;2024-02-15T01:29:33;9.00;;;8.10;;
6053;SDS011;3055;50.886;14.814;2024-02-15T01:32:01;10.90;;;8.83;;
6053;SDS011;3055;50.886;14.814;2024-02-15T01:34:28;10.17;;;8.70;;
6053;SDS011;3055;50.886;14.814;2024-02-15T01:36:57;10.57;;;9.47;;
6053;SDS011;3055;50.886;14.814;2024-02-15T01:39:24;10.60;;;9.00;;
6053;SDS011;3055;50.886;14.814;2024-02-15T01:41:51;14.73;;;9.00;;
6053;SDS011;3055;50.886;14.814;2024-02-15T01:44:21;10.10;;;8.93;;
6053;SDS011;3055;50.886;14.814;2024-02-15T01:46:49;11.17;;;8.63;;
6053;SDS011;3055;50.886;14.814;2024-02-15T01:49:18;11.70;;;9.37;;
6053;SDS011;3055;50.886;14.814;2024-02-15T01:51:47;9.90;;;8.80;;
6053;SDS011;3055;50.886;14.814;2024-02-15T01:54:19;11.07;;;8.87;;
6053;SDS011;3055;50.886;14.814;2024-02-15T01:56:47;10.17;;;8.57;;
6053;SDS011;3055;50.886;14.814;2024-02-15T01:59:14;11.00;;;9.37;;
6053;SDS011;3055;50.886;14.814;2024-02-15T02:01:42;10.73;;;8.90;;
6053;SDS011;3055;50.886;14.814;2024-02-15T02:04:10;10.13;;;8.97;;
6053;SDS011;3055;50.886;14.814;2024-02-15T02:06:38;11.43;;;9.67;;
6053;SDS011;3055;50.886;14.814;2024-02-15T02:09:06;10.87;;;9.27;;
6053;SDS011;3055;50.886;14.814;2024-02-15T02:11:39;11.50;;;9.03;;
6053;SDS011;3055;50.886;14.814;2024-02-15T02:14:06;11.60;;;9.43;;
6053;SDS011;3055;50.886;14.814;2024-02-15T02:16:34;10.00;;;9.00;;
6053;SDS011;3055;50.886;14.814;2024-02-15T02:19:01;10.23;;;9.17;;
6053;SDS011;3055;50.886;14.814;2024-02-15T02:21:34;10.70;;;8.30;;
6053;SDS011;3055;50.886;14.814;2024-02-15T02:24:06;9.83;;;8.83;;
6053;SDS011;3055;50.886;14.814;2024-02-15T02:26:40;11.57;;;9.17;;
6053;SDS011;3055;50.886;14.814;2024-02-15T02:29:08;12.03;;;9.27;;
6053;SDS011;3055;50.886;14.814;2024-02-15T02:31:35;12.43;;;9.50;;
6053;SDS011;3055;50.886;14.814;2024-02-15T02:34:03;10.90;;;9.63;;
6053;SDS011;3055;50.886;14.814;2024-02-15T02:36:31;9.60;;;8.70;;
6053;SDS011;3055;50.886;14.814;2024-02-15T02:38:59;11.67;;;9.40;;
6053;SDS011;3055;50.886;14.814;2024-02-15T02:41:26;12.70;;;10.47;;
6053;SDS011;3055;50.886;14.814;2024-02-15T02:43:56;11.97;;;9.27;;
6053;SDS011;3055;50.886;14.814;2024-02-15T02:46:23;13.40;;;10.67;;
6053;SDS011;3055;50.886;14.814;2024-02-15T02:48:50;13.10;;;9.83;;
6053;SDS011;3055;50.886;14.814;2024-02-15T02:51:17;14.67;;;9.57;;
6053;SDS011;3055;50.886;14.814;2024-02-15T02:53:45;11.33;;;9.40;;
6053;SDS011;3055;50.886;14.814;2024-02-15T02:56:12;13.23;;;9.70;;
6053;SDS011;3055;50.886;14.814;2024-02-15T02:58:39;11.53;;;10.13;;
6053;SDS011;3055;50.886;14.814;2024-02-15T03:01:08;12.37;;;10.17;;
6053;SDS011;3055;50.886;14.814;2024-02-15T03:03:36;11.30;;;9.73;;
6053;SDS011;3055;50.886;14.814;2024-02-15T03:06:05;11.40;;;10.03;;
6053;SDS011;3055;50.886;14.814;2024-02-15T03:08:32;15.40;;;9.17;;
6053;SDS011;3055;50.886;14.814;2024-02-15T03:10:59;13.33;;;10.57;;
6053;SDS011;3055;50.886;14.814;2024-02-15T03:13:27;11.20;;;10.10;;
6053;SDS011;3055;50.886;14.814;2024-02-15T03:15:54;15.33;;;10.23;;
6053;SDS011;3055;50.886;14.814;2024-02-15T03:18:22;14.63;;;10.80;;
6053;SDS011;3055;50.886;14.814;2024-02-15T03:20:49;12.10;;;10.10;;
6053;SDS011;3055;50.886;14.814;2024-02-15T03:23:17;11.70;;;9.97;;
6053;SDS011;3055;50.886;14.814;2024-02-15T03:25:44;11.77;;;9.73;;
6053;SDS011;3055;50.886;14.814;2024-02-15T03:28:11;11.00;;;9.80;;
6053;SDS011;3055;50.886;14.814;2024-02-15T03:30:40;12.77;;;11.40;;
6053;SDS011;3055;50.886;14.814;2024-02-15T03:33:08;13.63;;;10.80;;
6053;SDS011;3055;50.886;14.814;2024-02-15T03:35:36;16.43;;;11.10;;
6053;SDS011;3055;50.886;14.814;2024-02-15T03:38:03;12.63;;;10.90;;
6053;SDS011;3055;50.886;14.814;2024-02-15T03:40:31;11.67;;;10.23;;
6053;SDS011;3055;50.886;14.814;2024-02-15T03:42:58;11.73;;;10.47;;
6053;SDS011;3055;50.886;14.814;2024-02-15T03:45:26;12.47;;;10.40;;
6053;SDS011;3055;50.886;14.814;2024-02-15T03:47:53;10.73;;;9.63;;
6053;SDS011;3055;50.886;14.814;2024-02-15T03:50:21;13.00;;;10.97;;
6053;SDS011;3055;50.886;14.814;2024-02-15T03:52:50;14.13;;;10.90;;
6053;SDS011;3055;50.886;14.814;2024-02-15T03:55:17;13.97;;;10.87;;
6053;SDS011;3055;50.886;14.814;2024-02-15T03:57:45;13.93;;;10.50;;
6053;SDS011;3055;50.886;14.814;2024-02-15T04:00:12;13.87;;;11.47;;
6053;SDS011;3055;50.886;14.814;2024-02-15T04:02:40;14.70;;;11.77;;
6053;SDS011;3055;50.886;14.814;2024-02-15T04:05:10;12.60;;;11.33;;
6053;SDS011;3055;50.886;14.814;2024-02-15T04:07:37;12.70;;;11.40;;
6053;SDS011;3055;50.886;14.814;2024-02-15T04:10:06;12.63;;;11.23;;
6053;SDS011;3055;50.886;14.814;2024-02-15T04:12:34;12.90;;;11.50;;
6053;SDS011;3055;50.886;14.814;2024-02-15T04:15:02;14.27;;;12.73;;
6053;SDS011;3055;50.886;14.814;2024-02-15T04:17:36;13.87;;;12.27;;
6053;SDS011;3055;50.886;14.814;2024-02-15T04:20:04;15.37;;;12.57;;
6053;SDS011;3055;50.886;14.814;2024-02-15T04:22:32;14.03;;;12.57;;
6053;SDS011;3055;50.886;14.814;2024-02-15T04:25:01;15.27;;;12.80;;
6053;SDS011;3055;50.886;14.814;2024-02-15T04:27:30;13.23;;;11.90;;
6053;SDS011;3055;50.886;14.814;2024-02-15T04:29:57;14.33;;;12.77;;
6053;SDS011;3055;50.886;14.814;2024-02-15T04:32:24;14.63;;;13.10;;
6053;SDS011;3055;50.886;14.814;2024-02-15T04:34:51;14.07;;;12.57;;
6053;SDS011;3055;50.886;14.814;2024-02-15T04:37:18;14.57;;;12.07;;
6053;SDS011;3055;50.886;14.814;2024-02-15T04:39:45;15.20;;;13.00;;
6053;SDS011;3055;50.886;14.814;2024-02-15T04:42:13;15.57;;;13.90;;
6053;SDS011;3055;50.886;14.814;2024-02-15T04:44:43;15.63;;;13.83;;
6053;SDS011;3055;50.886;14.814;2024-02-15T04:47:10;18.43;;;14.17;;
6053;SDS011;3055;50.886;14.814;2024-02-15T04:49:38;16.77;;;13.20;;
6053;SDS011;3055;50.886;14.814;2024-02-15T04:52:05;16.27;;;14.57;;
6053;SDS011;3055;50.886;14.814;2024-02-15T04:54:32;15.80;;;14.10;;
6053;SDS011;3055;50.886;14.814;2024-02-15T04:56:59;15.30;;;13.43;;
6053;SDS011;3055;50.886;14.814;2024-02-15T04:59:26;18.10;;;14.17;;
6053;SDS011;3055;50.886;14.814;2024-02-15T05:01:55;15.20;;;13.57;;
6053;SDS011;3055;50.886;14.814;2024-02-15T05:04:24;16.67;;;14.67;;
6053;SDS011;3055;50.886;14.814;2024-02-15T05:06:51;17.80;;;15.03;;
6053;SDS011;3055;50.886;14.814;2024-02-15T05:09:19;20.97;;;15.20;;
6053;SDS011;3055;50.886;14.814;2024-02-15T05:11:48;19.30;;;15.00;;
6053;SDS011;3055;50.886;14.814;2024-02-15T05:14:15;16.73;;;14.43;;
6053;SDS011;3055;50.886;14.814;2024-02-15T05:16:44;16.17;;;14.43;;
6053;SDS011;3055;50.886;14.814;2024-02-15T05:19:14;17.87;;;14.07;;
6053;SDS011;3055;50.886;14.814;2024-02-15T05:21:42;16.83;;;14.63;;
6053;SDS011;3055;50.886;14.814;2024-02-15T05:24:11;18.33;;;15.60;;
6053;SDS011;3055;50.886;14.814;2024-02-15T05:26:39;17.90;;;14.53;;
6053;SDS011;3055;50.886;14.814;2024-02-15T05:29:08;15.93;;;14.23;;
6053;SDS011;3055;50.886;14.814;2024-02-15T05:31:36;17.00;;;14.27;;
6053;SDS011;3055;50.886;14.814;2024-02-15T05:34:05;17.07;;;14.37;;
6053;SDS011;3055;50.886;14.814;2024-02-15T05:36:37;16.60;;;14.30;;
6053;SDS011;3055;50.886;14.814;2024-02-15T05:39:05;17.13;;;15.33;;
6053;SDS011;3055;50.886;14.814;2024-02-15T05:41:32;17.13;;;15.07;;
6053;SDS011;3055;50.886;14.814;2024-02-15T05:43:59;17.37;;;15.07;;
6053;SDS011;3055;50.886;14.814;2024-02-15T05:46:26;17.77;;;15.20;;
6053;SDS011;3055;50.886;14.814;2024-02-15T05:48:54;19.57;;;16.03;;
6053;SDS011;3055;50.886;14.814;2024-02-15T05:51:22;18.07;;;15.73;;
6053;SDS011;3055;50.886;14.814;2024-02-15T05:53:50;18.47;;;16.50;;
6053;SDS011;3055;50.886;14.814;2024-02-15T05:56:23;18.00;;;14.70;;
6053;SDS011;3055;50.886;14.814;2024-02-15T05:58:51;19.63;;;15.50;;
6053;SDS011;3055;50.886;14.814;2024-02-15T06:01:18;19.00;;;15.33;;
6053;SDS011;3055;50.886;14.814;2024-02-15T06:03:45;18.37;;;16.20;;
6053;SDS011;3055;50.886;14.814;2024-02-15T06:06:13;18.27;;;14.70;;
6053;SDS011;3055;50.886;14.814;2024-02-15T06:08:40;17.77;;;15.57;;
6053;SDS011;3055;50.886;14.814;2024-02-15T06:11:08;20.77;;;16.10;;
6053;SDS011;3055;50.886;14.814;2024-02-15T06:13:39;18.27;;;15.87;;
6053;SDS011;3055;50.886;14.814;2024-02-15T06:16:07;18.87;;;15.47;;
6053;SDS011;3055;50.886;14.814;2024-02-15T06:18:35;19.13;;;16.10;;
6053;SDS011;3055;50.886;14.814;2024-02-15T06:21:03;20.73;;;16.33;;
6053;SDS011;3055;50.886;14.814;2024-02-15T06:23:30;19.23;;;17.20;;
6053;SDS011;3055;50.886;14.814;2024-02-15T06:25:58;17.47;;;15.57;;
6053;SDS011;3055;50.886;14.814;2024-02-15T06:28:27;19.30;;;15.70;;
6053;SDS011;3055;50.886;14.814;2024-02-15T06:31:12;20.07;;;15.40;;
6053;SDS011;3055;50.886;14.814;2024-02-15T06:33:57;17.03;;;14.80;;
6053;SDS011;3055;50.886;14.814;2024-02-15T06:36:45;17.80;;;15.67;;
6053;SDS011;3055;50.886;14.814;2024-02-15T06:39:30;18.77;;;15.73;;
6053;SDS011;3055;50.886;14.814;2024-02-15T06:42:10;19.40;;;16.03;;
6053;SDS011;3055;50.886;14.814;2024-02-15T06:44:42;18.57;;;14.47;;
6053;SDS011;3055;50.886;14.814;2024-02-15T06:47:10;19.27;;;15.07;;
6053;SDS011;3055;50.886;14.814;2024-02-15T06:49:37;16.47;;;14.50;;
6053;SDS011;3055;50.886;14.814;2024-02-15T06:52:06;16.33;;;14.03;;
6053;SDS011;3055;50.886;14.814;2024-02-15T06:54:33;17.57;;;14.20;;
6053;SDS011;3055;50.886;14.814;2024-02-15T06:57:01;18.60;;;13.87;;
6053;SDS011;3055;50.886;14.814;2024-02-15T06:59:29;17.73;;;14.67;;
6053;SDS011;3055;50.886;14.814;2024-02-15T07:01:59;17.87;;;14.67;;
6053;SDS011;3055;50.886;14.814;2024-02-15T07:04:30;17.70;;;15.00;;
6053;SDS011;3055;50.886;14.814;2024-02-15T07:06:57;16.23;;;14.40;;
6053;SDS011;3055;50.886;14.814;2024-02-15T07:09:24;17.77;;;14.20;;
6053;SDS011;3055;50.886;14.814;2024-02-15T07:11:52;15.63;;;13.93;;
6053;SDS011;3055;50.886;14.814;2024-02-15T07:14:20;18.83;;;13.40;;
6053;SDS011;3055;50.886;14.814;2024-02-15T07:16:47;18.97;;;14.53;;
6053;SDS011;3055;50.886;14.814;2024-02-15T07:19:17;17.40;;;14.03;;
6053;SDS011;3055;50.886;14.814;2024-02-15T07:21:44;19.93;;;14.50;;
6053;SDS011;3055;50.886;14.814;2024-02-15T07:24:11;17.57;;;14.70;;
6053;SDS011;3055;50.886;14.814;2024-02-15T07:26:39;17.53;;;14.53;;
6053;SDS011;3055;50.886;14.814;2024-02-15T07:29:06;19.00;;;14.63;;
6053;SDS011;3055;50.886;14.814;2024-02-15T07:31:34;17.30;;;14.40;;
6053;SDS011;3055;50.886;14.814;2024-02-15T07:34:01;16.70;;;14.03;;
6053;SDS011;3055;50.886;14.814;2024-02-15T07:36:31;18.67;;;14.97;;
6053;SDS011;3055;50.886;14.814;2024-02-15T07:38:58;19.20;;;14.67;;
6053;SDS011;3055;50.886;14.814;2024-02-15T07:41:28;17.83;;;14.47;;
6053;SDS011;3055;50.886;14.814;2024-02-15T07:43:56;15.87;;;13.57;;
6053;SDS011;3055;50.886;14.814;2024-02-15T07:46:24;18.57;;;14.30;;
6053;SDS011;3055;50.886;14.814;2024-02-15T07:48:51;19.70;;;14.83;;
6053;SDS011;3055;50.886;14.814;2024-02-15T07:51:19;17.33;;;14.17;;
6053;SDS011;3055;50.886;14.814;2024-02-15T07:53:48;17.67;;;13.97;;
6053;SDS011;3055;50.886;14.814;2024-02-15T07:56:16;19.37;;;14.70;;
6053;SDS011;3055;50.886;14.814;2024-02-15T07:58:44;19.83;;;15.47;;
6053;SDS011;3055;50.886;14.814;2024-02-15T08:01:12;20.47;;;14.70;;
6053;SDS011;3055;50.886;14.814;2024-02-15T08:03:40;17.97;;;15.10;;
6053;SDS011;3055;50.886;14.814;2024-02-15T08:06:10;18.20;;;15.40;;
6053;SDS011;3055;50.886;14.814;2024-02-15T08:08:38;19.87;;;15.40;;
6053;SDS011;3055;50.886;14.814;2024-02-15T08:11:07;20.23;;;15.20;;
6053;SDS011;3055;50.886;14.814;2024-02-15T08:13:40;19.33;;;14.87;;
6053;SDS011;3055;50.886;14.814;2024-02-15T08:16:09;18.23;;;14.30;;
6053;SDS011;3055;50.886;14.814;2024-02-15T08:18:38;17.97;;;13.97;;
6053;SDS011;3055;50.886;14.814;2024-02-15T08:21:05;18.03;;;14.50;;
6053;SDS011;3055;50.886;14.814;2024-02-15T08:23:32;20.63;;;15.13;;
6053;SDS011;3055;50.886;14.814;2024-02-15T08:25:59;17.67;;;14.77;;
6053;SDS011;3055;50.886;14.814;2024-02-15T08:28:28;19.27;;;14.80;;
6053;SDS011;3055;50.886;14.814;2024-02-15T08:30:55;19.47;;;16.17;;
6053;SDS011;3055;50.886;14.814;2024-02-15T08:33:22;17.17;;;14.47;;
6053;SDS011;3055;50.886;14.814;2024-02-15T08:35:50;20.97;;;16.10;;
6053;SDS011;3055;50.886;14.814;2024-02-15T08:38:20;19.07;;;15.40;;
6053;SDS011;3055;50.886;14.814;2024-02-15T08:40:47;19.23;;;15.50;;
6053;SDS011;3055;50.886;14.814;2024-02-15T08:43:15;18.13;;;14.50;;
6053;SDS011;3055;50.886;14.814;2024-02-15T08:45:43;17.03;;;14.63;;
6053;SDS011;3055;50.886;14.814;2024-02-15T08:48:11;21.00;;;15.57;;
6053;SDS011;3055;50.886;14.814;2024-02-15T08:50:38;17.93;;;14.03;;
6053;SDS011;3055;50.886;14.814;2024-02-15T08:53:06;20.23;;;15.20;;
6053;SDS011;3055;50.886;14.814;2024-02-15T08:55:34;18.73;;;14.37;;
6053;SDS011;3055;50.886;14.814;2024-02-15T08:58:02;18.27;;;15.27;;
6053;SDS011;3055;50.886;14.814;2024-02-15T09:00:30;18.43;;;14.77;;
6053;SDS011;3055;50.886;14.814;2024-02-15T09:02:58;17.30;;;14.03;;
6053;SDS011;3055;50.886;14.814;2024-02-15T09:05:25;16.83;;;14.57;;
6053;SDS011;3055;50.886;14.814;2024-02-15T09:07:53;18.60;;;14.47;;
6053;SDS011;3055;50.886;14.814;2024-02-15T09:10:20;18.80;;;14.53;;
6053;SDS011;3055;50.886;14.814;2024-02-15T09:12:48;16.57;;;13.83;;
6053;SDS011;3055;50.886;14.814;2024-02-15T09:15:15;17.90;;;15.10;;
6053;SDS011;3055;50.886;14.814;2024-02-15T09:17:43;16.10;;;14.23;;
6053;SDS011;3055;50.886;14.814;2024-02-15T09:20:13;16.23;;;13.23;;
6053;SDS011;3055;50.886;14.814;2024-02-15T09:22:43;20.20;;;14.90;;
6053;SDS011;3055;50.886;14.814;2024-02-15T09:25:13;19.43;;;14.93;;
6053;SDS011;3055;50.886;14.814;2024-02-15T09:27:40;16.23;;;13.23;;
6053;SDS011;3055;50.886;14.814;2024-02-15T09:30:08;15.87;;;13.80;;
6053;SDS011;3055;50.886;14.814;2024-02-15T09:32:37;17.27;;;14.33;;
6053;SDS011;3055;50.886;14.814;2024-02-15T09:35:05;18.20;;;14.10;;
6053;SDS011;3055;50.886;14.814;2024-02-15T09:37:34;18.57;;;13.63;;
6053;SDS011;3055;50.886;14.814;2024-02-15T09:40:04;17.73;;;14.67;;
6053;SDS011;3055;50.886;14.814;2024-02-15T09:42:35;16.50;;;13.20;;
6053;SDS011;3055;50.886;14.814;2024-02-15T09:45:04;15.03;;;12.83;;
6053;SDS011;3055;50.886;14.814;2024-02-15T09:47:33;18.00;;;13.77;;
6053;SDS011;3055;50.886;14.814;2024-02-15T09:50:01;16.47;;;13.43;;
6053;SDS011;3055;50.886;14.814;2024-02-15T09:52:29;15.27;;;12.87;;
6053;SDS011;3055;50.886;14.814;2024-02-15T09:55:02;15.07;;;12.80;;
6053;SDS011;3055;50.886;14.814;2024-02-15T09:57:30;16.13;;;13.73;;
6053;SDS011;3055;50.886;14.814;2024-02-15T09:59:58;15.37;;;13.07;;
6053;SDS011;3055;50.886;14.814;2024-02-15T10:02:26;15.77;;;13.50;;
6053;SDS011;3055;50.886;14.814;2024-02-15T10:04:55;15.03;;;12.27;;
6053;SDS011;3055;50.886;14.814;2024-02-15T10:07:24;15.50;;;12.60;;
6053;SDS011;3055;50.886;14.814;2024-02-15T10:09:52;14.07;;;12.37;;
6053;SDS011;3055;50.886;14.814;2024-02-15T10:12:20;13.33;;;11.03;;
6053;SDS011;3055;50.886;14.814;2024-02-15T10:14:48;12.53;;;10.90;;
6053;SDS011;3055;50.886;14.814;2024-02-15T10:17:18;11.90;;;10.53;;
6053;SDS011;3055;50.886;14.814;2024-02-15T10:19:48;13.63;;;11.17;;
6053;SDS011;3055;50.886;14.814;2024-02-15T10:22:29;13.63;;;10.53;;
6053;SDS011;3055;50.886;14.814;2024-02-15T10:25:10;12.60;;;10.50;;
6053;SDS011;3055;50.886;14.814;2024-02-15T10:27:39;12.20;;;10.17;;
6053;SDS011;3055;50.886;14.814;2024-02-15T10:30:16;13.00;;;10.53;;
6053;SDS011;3055;50.886;14.814;2024-02-15T10:32:45;13.80;;;11.73;;
6053;SDS011;3055;50.886;14.814;2024-02-15T10:35:22;16.43;;;13.27;;
6053;SDS011;3055;50.886;14.814;2024-02-15T10:37:49;15.80;;;13.77;;
6053;SDS011;3055;50.886;14.814;2024-02-15T10:40:18;18.13;;;16.17;;
6053;SDS011;3055;50.886;14.814;2024-02-15T10:42:47;12.37;;;11.07;;
6053;SDS011;3055;50.886;14.814;2024-02-15T10:45:15;12.40;;;11.10;;
6053;SDS011;3055;50.886;14.814;2024-02-15T10:47:44;11.67;;;10.47;;
6053;SDS011;3055;50.886;14.814;2024-02-15T10:50:12;12.27;;;10.33;;
6053;SDS011;3055;50.886;14.814;2024-02-15T10:52:42;10.57;;;8.83;;
6053;SDS011;3055;50.886;14.814;2024-02-15T10:55:14;10.57;;;9.47;;
6053;SDS011;3055;50.886;14.814;2024-02-15T10:57:53;14.73;;;10.70;;
6053;SDS011;3055;50.886;14.814;2024-02-15T11:00:25;12.03;;;10.73;;
6053;SDS011;3055;50.886;14.814;2024-02-15T11:03:01;11.37;;;10.17;;
6053;SDS011;3055;50.886;14.814;2024-02-15T11:05:31;11.27;;;9.63;;
6053;SDS011;3055;50.886;14.814;2024-02-15T11:08:03;11.40;;;10.10;;
6053;SDS011;3055;50.886;14.814;2024-02-15T11:10:32;11.50;;;10.30;;
6053;SDS011;3055;50.886;14.814;2024-02-15T11:13:01;13.43;;;10.73;;
6053;SDS011;3055;50.886;14.814;2024-02-15T11:15:43;13.57;;;11.23;;
6053;SDS011;3055;50.886;14.814;2024-02-15T11:21:13;12.50;;;11.10;;
6053;SDS011;3055;50.886;14.814;2024-02-15T11:23:42;14.23;;;11.60;;
6053;SDS011;3055;50.886;14.814;2024-02-15T11:26:10;12.80;;;10.53;;
6053;SDS011;3055;50.886;14.814;2024-02-15T11:29:21;13.20;;;11.30;;
6053;SDS011;3055;50.886;14.814;2024-02-15T11:32:37;13.27;;;11.83;;
6053;SDS011;3055;50.886;14.814;2024-02-15T11:35:09;16.20;;;12.87;;
6053;SDS011;3055;50.886;14.814;2024-02-15T11:37:49;13.57;;;11.90;;
6053;SDS011;3055;50.886;14.814;2024-02-15T11:40:18;17.73;;;12.67;;
6053;SDS011;3055;50.886;14.814;2024-02-15T11:42:48;15.33;;;12.80;;
6053;SDS011;3055;50.886;14.814;2024-02-15T11:45:17;15.87;;;13.30;;
6053;SDS011;3055;50.886;14.814;2024-02-15T11:47:44;16.10;;;13.53;;
6053;SDS011;3055;50.886;14.814;2024-02-15T11:50:15;20.00;;;14.90;;
6053;SDS011;3055;50.886;14.814;2024-02-15T11:52:43;16.07;;;13.77;;
6053;SDS011;3055;50.886;14.814;2024-02-15T11:55:14;18.17;;;15.10;;
6053;SDS011;3055;50.886;14.814;2024-02-15T11:57:44;17.97;;;13.40;;
6053;SDS011;3055;50.886;14.814;2024-02-15T12:00:29;15.43;;;13.27;;
6053;SDS011;3055;50.886;14.814;2024-02-15T12:03:14;15.57;;;13.63;;
6053;SDS011;3055;50.886;14.814;2024-02-15T12:05:59;16.20;;;13.23;;
6053;SDS011;3055;50.886;14.814;2024-02-15T12:08:45;14.80;;;13.20;;
6053;SDS011;3055;50.886;14.814;2024-02-15T12:11:30;15.87;;;12.67;;
6053;SDS011;3055;50.886;14.814;2024-02-15T12:14:14;16.33;;;13.07;;
6053;SDS011;3055;50.886;14.814;2024-02-15T12:17:04;18.00;;;13.20;;
6053;SDS011;3055;50.886;14.814;2024-02-15T12:19:50;16.47;;;12.70;;
6053;SDS011;3055;50.886;14.814;2024-02-15T12:22:20;14.40;;;11.57;;
6053;SDS011;3055;50.886;14.814;2024-02-15T12:24:52;14.80;;;12.47;;
6053;SDS011;3055;50.886;14.814;2024-02-15T12:27:21;14.03;;;11.67;;
6053;SDS011;3055;50.886;14.814;2024-02-15T12:29:52;14.40;;;12.27;;
6053;SDS011;3055;50.886;14.814;2024-02-15T12:32:25;12.83;;;10.60;;
6053;SDS011;3055;50.886;14.814;2024-02-15T12:34:53;12.73;;;11.30;;
6053;SDS011;3055;50.886;14.814;2024-02-15T12:37:36;15.67;;;11.47;;
6053;SDS011;3055;50.886;14.814;2024-02-15T12:40:09;13.23;;;11.83;;
6053;SDS011;3055;50.886;14.814;2024-02-15T12:42:41;13.53;;;11.80;;
6053;SDS011;3055;50.886;14.814;2024-02-15T12:45:14;17.23;;;13.00;;
6053;SDS011;3055;50.886;14.814;2024-02-15T12:47:47;14.27;;;12.40;;
6053;SDS011;3055;50.886;14.814;2024-02-15T12:50:16;14.03;;;11.37;;
6053;SDS011;3055;50.886;14.814;2024-02-15T12:52:45;14.47;;;12.70;;
6053;SDS011;3055;50.886;14.814;2024-02-15T12:55:14;15.83;;;13.17;;
6053;SDS011;3055;50.886;14.814;2024-02-15T12:57:43;13.67;;;12.10;;
6053;SDS011;3055;50.886;14.814;2024-02-15T13:00:17;15.90;;;12.17;;
6053;SDS011;3055;50.886;14.814;2024-02-15T13:02:47;15.93;;;13.60;;
6053;SDS011;3055;50.886;14.814;2024-02-15T13:05:16;16.23;;;13.53;;
6053;SDS011;3055;50.886;14.814;2024-02-15T13:07:44;16.67;;;13.17;;
6053;SDS011;3055;50.886;14.814;2024-02-15T13:10:12;16.37;;;12.93;;
6053;SDS011;3055;50.886;14.814;2024-02-15T13:12:40;16.40;;;13.67;;
6053;SDS011;3055;50.886;14.814;2024-02-15T13:15:09;18.80;;;16.20;;
6053;SDS011;3055;50.886;14.814;2024-02-15T13:17:40;18.23;;;15.13;;
6053;SDS011;3055;50.886;14.814;2024-02-15T13:20:11;17.10;;;15.00;;
6053;SDS011;3055;50.886;14.814;2024-02-15T13:22:39;20.77;;;14.73;;
6053;SDS011;3055;50.886;14.814;2024-02-15T13:25:08;17.30;;;15.13;;
6053;SDS011;3055;50.886;14.814;2024-02-15T13:27:36;20.83;;;16.23;;
6053;SDS011;3055;50.886;14.814;2024-02-15T13:30:04;19.47;;;15.23;;
6053;SDS011;3055;50.886;14.814;2024-02-15T13:32:33;19.93;;;16.97;;
6053;SDS011;3055;50.886;14.814;2024-02-15T13:35:01;19.87;;;15.73;;
6053;SDS011;3055;50.886;14.814;2024-02-15T13:37:39;18.50;;;16.13;;
6053;SDS011;3055;50.886;14.814;2024-02-15T13:40:08;22.60;;;16.83;;
6053;SDS011;3055;50.886;14.814;2024-02-15T13:42:40;20.83;;;16.43;;
6053;SDS011;3055;50.886;14.814;2024-02-15T13:45:12;19.73;;;15.47;;
6053;SDS011;3055;50.886;14.814;2024-02-15T13:47:40;19.90;;;15.60;;
6053;SDS011;3055;50.886;14.814;2024-02-15T13:50:11;19.60;;;15.03;;
6053;SDS011;3055;50.886;14.814;2024-02-15T13:52:41;18.20;;;14.83;;
6053;SDS011;3055;50.886;14.814;2024-02-15T13:55:10;17.57;;;14.30;;
6053;SDS011;3055;50.886;14.814;2024-02-15T13:57:38;16.90;;;14.23;;
6053;SDS011;3055;50.886;14.814;2024-02-15T14:00:06;16.60;;;14.07;;
6053;SDS011;3055;50.886;14.814;2024-02-15T14:02:38;14.80;;;13.23;;
6053;SDS011;3055;50.886;14.814;2024-02-15T14:05:07;13.93;;;12.50;;
6053;SDS011;3055;50.886;14.814;2024-02-15T14:07:36;15.30;;;13.53;;
6053;SDS011;3055;50.886;14.814;2024-02-15T14:10:05;14.13;;;12.17;;
6053;SDS011;3055;50.886;14.814;2024-02-15T14:12:33;15.97;;;14.03;;
6053;SDS011;3055;50.886;14.814;2024-02-15T14:15:00;14.57;;;12.70;;
6053;SDS011;3055;50.886;14.814;2024-02-15T14:17:28;14.27;;;12.80;;
6053;SDS011;3055;50.886;14.814;2024-02-15T14:19:55;13.93;;;12.47;;
6053;SDS011;3055;50.886;14.814;2024-02-15T14:22:22;14.07;;;12.50;;
6053;SDS011;3055;50.886;14.814;2024-02-15T14:24:53;13.87;;;12.37;;
6053;SDS011;3055;50.886;14.814;2024-02-15T14:27:22;14.60;;;12.60;;
6053;SDS011;3055;50.886;14.814;2024-02-15T14:29:49;14.03;;;12.53;;
6053;SDS011;3055;50.886;14.814;2024-02-15T14:32:30;14.87;;;12.73;;
6053;SDS011;3055;50.886;14.814;2024-02-15T14:35:16;16.67;;;13.60;;
6053;SDS011;3055;50.886;14.814;2024-02-15T14:37:45;15.97;;;13.70;;
6053;SDS011;3055;50.886;14.814;2024-02-15T14:40:12;15.20;;;13.30;;
6053;SDS011;3055;50.886;14.814;2024-02-15T14:42:41;16.00;;;14.40;;
6053;SDS011;3055;50.886;14.814;2024-02-15T14:45:09;16.03;;;14.33;;
6053;SDS011;3055;50.886;14.814;2024-02-15T14:47:37;15.80;;;14.17;;
6053;SDS011;3055;50.886;14.814;2024-02-15T14:50:05;14.83;;;13.23;;
6053;SDS011;3055;50.886;14.814;2024-02-15T14:52:34;15.63;;;13.47;;
6053;SDS011;3055;50.886;14.814;2024-02-15T14:55:02;15.00;;;13.43;;